sensor_id;sensor_type;location;lat;lon;timestamp;P1;durP1;ratioP1;P2;durP2;ratioP2
56477;SDS011;42382;53.210;5.772;2023-04-06T00:01:51;7.00;;;4.07;;
56477;SDS011;42382;53.210;5.772;2023-04-06T00:04:17;5.35;;;3.72;;
56477;SDS011;42382;53.210;5.772;2023-04-06T00:06:42;8.63;;;3.38;;
56477;SDS011;42382;53.210;5.772;2023-04-06T00:09:08;5.90;;;3.45;;
56477;SDS011;42382;53.210;5.772;2023-04-06T00:11:33;5.38;;;3.53;;
56477;SDS011;42382;53.210;5.772;2023-04-06T00:13:59;5.97;;;3.88;;
56477;SDS011;42382;53.210;5.772;2023-04-06T00:16:25;5.50;;;3.90;;
56477;SDS011;42382;53.210;5.772;2023-04-06T00:18:51;6.80;;;3.38;;
56477;SDS011;42382;53.210;5.772;2023-04-06T00:21:17;7.90;;;3.55;;
56477;SDS011;42382;53.210;5.772;2023-04-06T00:23:42;8.55;;;4.13;;
56477;SDS011;42382;53.210;5.772;2023-04-06T00:26:08;8.90;;;4.15;;
56477;SDS011;42382;53.210;5.772;2023-04-06T00:28:35;7.30;;;3.83;;
56477;SDS011;42382;53.210;5.772;2023-04-06T00:31:02;5.78;;;3.88;;
56477;SDS011;42382;53.210;5.772;2023-04-06T00:33:27;7.80;;;3.92;;
56477;SDS011;42382;53.210;5.772;2023-04-06T00:35:53;6.80;;;4.13;;
56477;SDS011;42382;53.210;5.772;2023-04-06T00:38:18;6.97;;;3.60;;
56477;SDS011;42382;53.210;5.772;2023-04-06T00:40:44;10.60;;;4.25;;
56477;SDS011;42382;53.210;5.772;2023-04-06T00:43:10;5.68;;;3.67;;
56477;SDS011;42382;53.210;5.772;2023-04-06T00:45:40;6.13;;;4.38;;
56477;SDS011;42382;53.210;5.772;2023-04-06T00:48:06;6.18;;;3.60;;
56477;SDS011;42382;53.210;5.772;2023-04-06T00:50:33;6.25;;;4.00;;
56477;SDS011;42382;53.210;5.772;2023-04-06T00:52:59;4.88;;;3.83;;
56477;SDS011;42382;53.210;5.772;2023-04-06T00:55:26;6.57;;;3.50;;
56477;SDS011;42382;53.210;5.772;2023-04-06T00:57:52;8.02;;;3.88;;
56477;SDS011;42382;53.210;5.772;2023-04-06T01:00:17;5.68;;;3.40;;
56477;SDS011;42382;53.210;5.772;2023-04-06T01:02:43;6.88;;;3.95;;
56477;SDS011;42382;53.210;5.772;2023-04-06T01:05:11;4.13;;;3.42;;
56477;SDS011;42382;53.210;5.772;2023-04-06T01:07:37;7.95;;;4.03;;
56477;SDS011;42382;53.210;5.772;2023-04-06T01:10:02;10.25;;;4.07;;
56477;SDS011;42382;53.210;5.772;2023-04-06T01:12:29;7.50;;;3.88;;
56477;SDS011;42382;53.210;5.772;2023-04-06T01:14:55;6.07;;;3.85;;
56477;SDS011;42382;53.210;5.772;2023-04-06T01:17:21;6.30;;;3.97;;
56477;SDS011;42382;53.210;5.772;2023-04-06T01:19:47;5.80;;;3.60;;
56477;SDS011;42382;53.210;5.772;2023-04-06T01:22:17;7.32;;;4.10;;
56477;SDS011;42382;53.210;5.772;2023-04-06T01:24:43;9.50;;;5.10;;
56477;SDS011;42382;53.210;5.772;2023-04-06T01:27:09;5.93;;;3.80;;
56477;SDS011;42382;53.210;5.772;2023-04-06T01:29:35;5.18;;;3.78;;
56477;SDS011;42382;53.210;5.772;2023-04-06T01:32:01;6.30;;;3.90;;
56477;SDS011;42382;53.210;5.772;2023-04-06T01:34:27;8.65;;;3.50;;
56477;SDS011;42382;53.210;5.772;2023-04-06T01:36:53;6.50;;;3.95;;
56477;SDS011;42382;53.210;5.772;2023-04-06T01:39:18;5.25;;;3.65;;
56477;SDS011;42382;53.210;5.772;2023-04-06T01:41:45;6.60;;;3.55;;
56477;SDS011;42382;53.210;5.772;2023-04-06T01:44:12;7.20;;;3.75;;
56477;SDS011;42382;53.210;5.772;2023-04-06T01:46:39;6.38;;;3.95;;
56477;SDS011;42382;53.210;5.772;2023-04-06T01:49:05;6.28;;;4.38;;
56477;SDS011;42382;53.210;5.772;2023-04-06T01:51:31;10.13;;;3.63;;
56477;SDS011;42382;53.210;5.772;2023-04-06T01:53:56;6.47;;;4.15;;
56477;SDS011;42382;53.210;5.772;2023-04-06T01:56:22;5.63;;;3.70;;
56477;SDS011;42382;53.210;5.772;2023-04-06T01:58:48;6.20;;;3.70;;
56477;SDS011;42382;53.210;5.772;2023-04-06T02:01:13;6.43;;;4.13;;
56477;SDS011;42382;53.210;5.772;2023-04-06T02:03:39;8.00;;;3.95;;
56477;SDS011;42382;53.210;5.772;2023-04-06T02:06:05;4.90;;;3.88;;
56477;SDS011;42382;53.210;5.772;2023-04-06T02:08:31;5.18;;;3.65;;
56477;SDS011;42382;53.210;5.772;2023-04-06T02:10:56;5.20;;;3.60;;
56477;SDS011;42382;53.210;5.772;2023-04-06T02:13:22;6.82;;;4.00;;
56477;SDS011;42382;53.210;5.772;2023-04-06T02:15:47;5.88;;;3.83;;
56477;SDS011;42382;53.210;5.772;2023-04-06T02:18:13;6.90;;;3.85;;
56477;SDS011;42382;53.210;5.772;2023-04-06T02:20:39;7.35;;;4.10;;
56477;SDS011;42382;53.210;5.772;2023-04-06T02:23:04;7.22;;;4.68;;
56477;SDS011;42382;53.210;5.772;2023-04-06T02:25:30;8.30;;;4.00;;
56477;SDS011;42382;53.210;5.772;2023-04-06T02:27:55;8.27;;;4.13;;
56477;SDS011;42382;53.210;5.772;2023-04-06T02:30:21;7.30;;;3.88;;
56477;SDS011;42382;53.210;5.772;2023-04-06T02:32:46;4.47;;;3.60;;
56477;SDS011;42382;53.210;5.772;2023-04-06T02:35:12;6.45;;;4.53;;
56477;SDS011;42382;53.210;5.772;2023-04-06T02:37:38;6.10;;;3.78;;
56477;SDS011;42382;53.210;5.772;2023-04-06T02:40:04;7.50;;;3.92;;
56477;SDS011;42382;53.210;5.772;2023-04-06T02:42:31;7.10;;;3.70;;
56477;SDS011;42382;53.210;5.772;2023-04-06T02:44:57;5.97;;;3.95;;
56477;SDS011;42382;53.210;5.772;2023-04-06T02:47:22;6.90;;;4.65;;
56477;SDS011;42382;53.210;5.772;2023-04-06T02:49:48;7.78;;;3.90;;
56477;SDS011;42382;53.210;5.772;2023-04-06T02:52:13;9.00;;;4.57;;
56477;SDS011;42382;53.210;5.772;2023-04-06T02:54:39;5.88;;;4.00;;
56477;SDS011;42382;53.210;5.772;2023-04-06T02:57:05;8.85;;;4.28;;
56477;SDS011;42382;53.210;5.772;2023-04-06T02:59:30;7.60;;;4.10;;
56477;SDS011;42382;53.210;5.772;2023-04-06T03:01:56;7.05;;;4.20;;
56477;SDS011;42382;53.210;5.772;2023-04-06T03:04:22;7.43;;;4.70;;
56477;SDS011;42382;53.210;5.772;2023-04-06T03:06:50;6.22;;;3.95;;
56477;SDS011;42382;53.210;5.772;2023-04-06T03:09:16;8.55;;;4.72;;
56477;SDS011;42382;53.210;5.772;2023-04-06T03:11:41;5.97;;;4.25;;
56477;SDS011;42382;53.210;5.772;2023-04-06T03:14:07;7.00;;;4.55;;
56477;SDS011;42382;53.210;5.772;2023-04-06T03:16:33;8.07;;;4.45;;
56477;SDS011;42382;53.210;5.772;2023-04-06T03:18:58;9.15;;;4.75;;
56477;SDS011;42382;53.210;5.772;2023-04-06T03:21:24;8.07;;;4.78;;
56477;SDS011;42382;53.210;5.772;2023-04-06T03:23:50;6.45;;;4.35;;
56477;SDS011;42382;53.210;5.772;2023-04-06T03:26:16;6.22;;;4.40;;
56477;SDS011;42382;53.210;5.772;2023-04-06T03:28:41;6.80;;;4.72;;
56477;SDS011;42382;53.210;5.772;2023-04-06T03:31:07;9.70;;;5.07;;
56477;SDS011;42382;53.210;5.772;2023-04-06T03:33:33;7.30;;;4.45;;
56477;SDS011;42382;53.210;5.772;2023-04-06T03:35:58;6.50;;;4.35;;
56477;SDS011;42382;53.210;5.772;2023-04-06T03:38:24;7.65;;;4.70;;
56477;SDS011;42382;53.210;5.772;2023-04-06T03:40:50;5.97;;;3.92;;
56477;SDS011;42382;53.210;5.772;2023-04-06T03:43:15;7.70;;;4.80;;
56477;SDS011;42382;53.210;5.772;2023-04-06T03:45:41;8.15;;;4.68;;
56477;SDS011;42382;53.210;5.772;2023-04-06T03:48:06;9.50;;;4.88;;
56477;SDS011;42382;53.210;5.772;2023-04-06T03:50:32;9.10;;;4.40;;
56477;SDS011;42382;53.210;5.772;2023-04-06T03:52:58;6.82;;;4.90;;
56477;SDS011;42382;53.210;5.772;2023-04-06T03:55:23;9.73;;;4.95;;
56477;SDS011;42382;53.210;5.772;2023-04-06T03:57:49;7.72;;;4.60;;
56477;SDS011;42382;53.210;5.772;2023-04-06T04:00:15;8.80;;;4.57;;
56477;SDS011;42382;53.210;5.772;2023-04-06T04:02:40;8.05;;;5.32;;
56477;SDS011;42382;53.210;5.772;2023-04-06T04:05:06;11.27;;;5.15;;
56477;SDS011;42382;53.210;5.772;2023-04-06T04:07:32;6.07;;;4.38;;
56477;SDS011;42382;53.210;5.772;2023-04-06T04:09:58;7.13;;;5.03;;
56477;SDS011;42382;53.210;5.772;2023-04-06T04:12:23;7.82;;;5.20;;
56477;SDS011;42382;53.210;5.772;2023-04-06T04:14:49;8.50;;;5.60;;
56477;SDS011;42382;53.210;5.772;2023-04-06T04:17:15;9.27;;;6.47;;
56477;SDS011;42382;53.210;5.772;2023-04-06T04:19:40;9.98;;;5.78;;
56477;SDS011;42382;53.210;5.772;2023-04-06T04:22:06;9.20;;;5.40;;
56477;SDS011;42382;53.210;5.772;2023-04-06T04:24:31;13.88;;;5.30;;
56477;SDS011;42382;53.210;5.772;2023-04-06T04:26:57;7.88;;;5.22;;
56477;SDS011;42382;53.210;5.772;2023-04-06T04:29:23;10.10;;;5.70;;
56477;SDS011;42382;53.210;5.772;2023-04-06T04:31:49;9.40;;;5.35;;
56477;SDS011;42382;53.210;5.772;2023-04-06T04:34:15;9.93;;;5.68;;
56477;SDS011;42382;53.210;5.772;2023-04-06T04:36:41;8.93;;;6.40;;
56477;SDS011;42382;53.210;5.772;2023-04-06T04:39:09;7.93;;;5.05;;
56477;SDS011;42382;53.210;5.772;2023-04-06T04:41:35;9.35;;;6.50;;
56477;SDS011;42382;53.210;5.772;2023-04-06T04:44:00;9.65;;;5.53;;
56477;SDS011;42382;53.210;5.772;2023-04-06T04:46:27;9.52;;;6.43;;
56477;SDS011;42382;53.210;5.772;2023-04-06T04:48:52;11.82;;;5.90;;
56477;SDS011;42382;53.210;5.772;2023-04-06T04:51:18;9.35;;;6.07;;
56477;SDS011;42382;53.210;5.772;2023-04-06T04:53:45;9.75;;;5.88;;
56477;SDS011;42382;53.210;5.772;2023-04-06T04:56:10;12.32;;;6.82;;
56477;SDS011;42382;53.210;5.772;2023-04-06T04:58:36;10.32;;;6.30;;
56477;SDS011;42382;53.210;5.772;2023-04-06T05:01:01;7.63;;;5.85;;
56477;SDS011;42382;53.210;5.772;2023-04-06T05:03:27;10.85;;;6.57;;
56477;SDS011;42382;53.210;5.772;2023-04-06T05:05:53;12.98;;;6.88;;
56477;SDS011;42382;53.210;5.772;2023-04-06T05:08:18;12.07;;;6.00;;
56477;SDS011;42382;53.210;5.772;2023-04-06T05:10:44;8.43;;;5.45;;
56477;SDS011;42382;53.210;5.772;2023-04-06T05:13:11;11.15;;;5.50;;
56477;SDS011;42382;53.210;5.772;2023-04-06T05:15:37;11.32;;;6.50;;
56477;SDS011;42382;53.210;5.772;2023-04-06T05:18:06;10.70;;;6.32;;
56477;SDS011;42382;53.210;5.772;2023-04-06T05:20:32;8.93;;;5.93;;
56477;SDS011;42382;53.210;5.772;2023-04-06T05:22:58;9.70;;;6.13;;
56477;SDS011;42382;53.210;5.772;2023-04-06T05:25:24;11.32;;;6.50;;
56477;SDS011;42382;53.210;5.772;2023-04-06T05:27:50;9.43;;;6.55;;
56477;SDS011;42382;53.210;5.772;2023-04-06T05:30:16;9.32;;;6.30;;
56477;SDS011;42382;53.210;5.772;2023-04-06T05:32:41;11.43;;;6.38;;
56477;SDS011;42382;53.210;5.772;2023-04-06T05:35:09;11.00;;;6.60;;
56477;SDS011;42382;53.210;5.772;2023-04-06T05:37:35;9.95;;;6.25;;
56477;SDS011;42382;53.210;5.772;2023-04-06T05:40:00;9.25;;;5.80;;
56477;SDS011;42382;53.210;5.772;2023-04-06T05:42:26;10.48;;;6.25;;
56477;SDS011;42382;53.210;5.772;2023-04-06T05:44:52;11.73;;;6.40;;
56477;SDS011;42382;53.210;5.772;2023-04-06T05:47:18;10.43;;;6.97;;
56477;SDS011;42382;53.210;5.772;2023-04-06T05:49:43;12.07;;;6.70;;
56477;SDS011;42382;53.210;5.772;2023-04-06T05:52:09;8.82;;;6.35;;
56477;SDS011;42382;53.210;5.772;2023-04-06T05:54:36;11.00;;;7.10;;
56477;SDS011;42382;53.210;5.772;2023-04-06T05:57:02;11.02;;;7.00;;
56477;SDS011;42382;53.210;5.772;2023-04-06T05:59:31;13.02;;;7.07;;
56477;SDS011;42382;53.210;5.772;2023-04-06T06:01:57;10.50;;;6.00;;
56477;SDS011;42382;53.210;5.772;2023-04-06T06:04:23;12.65;;;6.80;;
56477;SDS011;42382;53.210;5.772;2023-04-06T06:06:48;11.50;;;7.30;;
56477;SDS011;42382;53.210;5.772;2023-04-06T06:09:17;11.63;;;6.82;;
56477;SDS011;42382;53.210;5.772;2023-04-06T06:11:43;14.30;;;7.88;;
56477;SDS011;42382;53.210;5.772;2023-04-06T06:14:08;14.32;;;7.40;;
56477;SDS011;42382;53.210;5.772;2023-04-06T06:16:34;10.25;;;6.50;;
56477;SDS011;42382;53.210;5.772;2023-04-06T06:19:00;9.27;;;6.40;;
56477;SDS011;42382;53.210;5.772;2023-04-06T06:21:26;9.85;;;6.57;;
56477;SDS011;42382;53.210;5.772;2023-04-06T06:23:51;13.15;;;6.50;;
56477;SDS011;42382;53.210;5.772;2023-04-06T06:26:19;11.57;;;7.43;;
56477;SDS011;42382;53.210;5.772;2023-04-06T06:28:44;14.93;;;6.95;;
56477;SDS011;42382;53.210;5.772;2023-04-06T06:31:10;10.15;;;6.57;;
56477;SDS011;42382;53.210;5.772;2023-04-06T06:33:35;11.57;;;7.32;;
56477;SDS011;42382;53.210;5.772;2023-04-06T06:36:01;15.23;;;7.65;;
56477;SDS011;42382;53.210;5.772;2023-04-06T06:38:27;12.55;;;6.68;;
56477;SDS011;42382;53.210;5.772;2023-04-06T06:40:52;12.10;;;7.50;;
56477;SDS011;42382;53.210;5.772;2023-04-06T06:43:18;11.82;;;7.55;;
56477;SDS011;42382;53.210;5.772;2023-04-06T06:45:44;13.90;;;7.30;;
56477;SDS011;42382;53.210;5.772;2023-04-06T06:48:09;11.80;;;7.15;;
56477;SDS011;42382;53.210;5.772;2023-04-06T06:50:36;13.32;;;7.00;;
56477;SDS011;42382;53.210;5.772;2023-04-06T06:53:01;10.63;;;7.05;;
56477;SDS011;42382;53.210;5.772;2023-04-06T06:55:27;11.93;;;7.30;;
56477;SDS011;42382;53.210;5.772;2023-04-06T06:57:53;11.82;;;7.05;;
56477;SDS011;42382;53.210;5.772;2023-04-06T07:00:18;10.93;;;6.72;;
56477;SDS011;42382;53.210;5.772;2023-04-06T07:02:46;10.23;;;6.47;;
56477;SDS011;42382;53.210;5.772;2023-04-06T07:05:12;10.88;;;6.88;;
56477;SDS011;42382;53.210;5.772;2023-04-06T07:07:38;12.57;;;7.10;;
56477;SDS011;42382;53.210;5.772;2023-04-06T07:10:04;13.55;;;7.13;;
56477;SDS011;42382;53.210;5.772;2023-04-06T07:12:30;13.57;;;7.45;;
56477;SDS011;42382;53.210;5.772;2023-04-06T07:14:56;13.68;;;7.13;;
56477;SDS011;42382;53.210;5.772;2023-04-06T07:17:21;11.05;;;7.45;;
56477;SDS011;42382;53.210;5.772;2023-04-06T07:19:47;13.27;;;7.18;;
56477;SDS011;42382;53.210;5.772;2023-04-06T07:22:12;14.30;;;7.68;;
56477;SDS011;42382;53.210;5.772;2023-04-06T07:24:38;12.80;;;7.15;;
56477;SDS011;42382;53.210;5.772;2023-04-06T07:27:04;12.82;;;7.93;;
56477;SDS011;42382;53.210;5.772;2023-04-06T07:29:29;15.20;;;7.85;;
56477;SDS011;42382;53.210;5.772;2023-04-06T07:31:55;12.40;;;7.80;;
56477;SDS011;42382;53.210;5.772;2023-04-06T07:34:21;14.95;;;7.50;;
56477;SDS011;42382;53.210;5.772;2023-04-06T07:36:47;12.45;;;7.28;;
56477;SDS011;42382;53.210;5.772;2023-04-06T07:39:12;13.30;;;7.63;;
56477;SDS011;42382;53.210;5.772;2023-04-06T07:41:38;13.90;;;8.23;;
56477;SDS011;42382;53.210;5.772;2023-04-06T07:44:04;13.27;;;7.07;;
56477;SDS011;42382;53.210;5.772;2023-04-06T07:46:30;10.50;;;7.22;;
56477;SDS011;42382;53.210;5.772;2023-04-06T07:48:56;14.75;;;7.70;;
56477;SDS011;42382;53.210;5.772;2023-04-06T07:51:22;10.32;;;6.78;;
56477;SDS011;42382;53.210;5.772;2023-04-06T07:53:49;10.02;;;7.55;;
56477;SDS011;42382;53.210;5.772;2023-04-06T07:56:15;13.18;;;7.03;;
56477;SDS011;42382;53.210;5.772;2023-04-06T07:58:41;13.43;;;7.82;;
56477;SDS011;42382;53.210;5.772;2023-04-06T08:01:06;11.85;;;7.45;;
56477;SDS011;42382;53.210;5.772;2023-04-06T08:03:35;11.70;;;7.32;;
56477;SDS011;42382;53.210;5.772;2023-04-06T08:06:01;11.65;;;7.63;;
56477;SDS011;42382;53.210;5.772;2023-04-06T08:08:27;11.80;;;7.00;;
56477;SDS011;42382;53.210;5.772;2023-04-06T08:10:53;12.23;;;7.10;;
56477;SDS011;42382;53.210;5.772;2023-04-06T08:13:19;15.98;;;8.25;;
56477;SDS011;42382;53.210;5.772;2023-04-06T08:15:45;12.13;;;7.53;;
56477;SDS011;42382;53.210;5.772;2023-04-06T08:18:11;12.35;;;7.55;;
56477;SDS011;42382;53.210;5.772;2023-04-06T08:20:37;12.65;;;7.88;;
56477;SDS011;42382;53.210;5.772;2023-04-06T08:23:04;10.68;;;7.85;;
56477;SDS011;42382;53.210;5.772;2023-04-06T08:25:29;11.88;;;8.50;;
56477;SDS011;42382;53.210;5.772;2023-04-06T08:27:55;14.43;;;8.48;;
56477;SDS011;42382;53.210;5.772;2023-04-06T08:30:21;16.70;;;8.50;;
56477;SDS011;42382;53.210;5.772;2023-04-06T08:32:47;13.45;;;8.00;;
56477;SDS011;42382;53.210;5.772;2023-04-06T08:35:12;14.63;;;8.98;;
56477;SDS011;42382;53.210;5.772;2023-04-06T08:37:38;12.43;;;8.88;;
56477;SDS011;42382;53.210;5.772;2023-04-06T08:40:04;13.57;;;8.63;;
56477;SDS011;42382;53.210;5.772;2023-04-06T08:42:33;16.83;;;9.07;;
56477;SDS011;42382;53.210;5.772;2023-04-06T08:45:06;14.98;;;9.43;;
56477;SDS011;42382;53.210;5.772;2023-04-06T08:47:34;14.40;;;8.80;;
56477;SDS011;42382;53.210;5.772;2023-04-06T08:49:59;14.80;;;9.50;;
56477;SDS011;42382;53.210;5.772;2023-04-06T08:52:32;16.33;;;9.00;;
56477;SDS011;42382;53.210;5.772;2023-04-06T08:54:59;19.45;;;9.25;;
56477;SDS011;42382;53.210;5.772;2023-04-06T08:57:25;12.40;;;8.98;;
56477;SDS011;42382;53.210;5.772;2023-04-06T08:59:51;13.07;;;8.57;;
56477;SDS011;42382;53.210;5.772;2023-04-06T09:02:18;19.92;;;10.77;;
56477;SDS011;42382;53.210;5.772;2023-04-06T09:04:52;15.52;;;10.57;;
56477;SDS011;42382;53.210;5.772;2023-04-06T09:07:19;16.80;;;10.15;;
56477;SDS011;42382;53.210;5.772;2023-04-06T09:09:45;14.65;;;9.32;;
56477;SDS011;42382;53.210;5.772;2023-04-06T09:12:27;16.00;;;10.65;;
56477;SDS011;42382;53.210;5.772;2023-04-06T09:14:53;15.77;;;10.50;;
56477;SDS011;42382;53.210;5.772;2023-04-06T09:17:24;18.88;;;11.57;;
56477;SDS011;42382;53.210;5.772;2023-04-06T09:19:52;19.63;;;10.60;;
56477;SDS011;42382;53.210;5.772;2023-04-06T09:22:18;19.58;;;11.13;;
56477;SDS011;42382;53.210;5.772;2023-04-06T09:27:13;16.65;;;12.02;;
56477;SDS011;42382;53.210;5.772;2023-04-06T09:29:43;15.40;;;10.77;;
56477;SDS011;42382;53.210;5.772;2023-04-06T09:32:10;19.88;;;12.30;;
56477;SDS011;42382;53.210;5.772;2023-04-06T09:34:39;21.17;;;13.25;;
56477;SDS011;42382;53.210;5.772;2023-04-06T09:37:18;18.90;;;11.68;;
56477;SDS011;42382;53.210;5.772;2023-04-06T09:39:45;18.70;;;11.73;;
56477;SDS011;42382;53.210;5.772;2023-04-06T09:42:24;17.08;;;12.18;;
56477;SDS011;42382;53.210;5.772;2023-04-06T09:44:50;20.13;;;11.82;;
56477;SDS011;42382;53.210;5.772;2023-04-06T09:47:16;22.27;;;13.15;;
56477;SDS011;42382;53.210;5.772;2023-04-06T09:49:42;20.35;;;12.52;;
56477;SDS011;42382;53.210;5.772;2023-04-06T09:52:10;19.02;;;11.82;;
56477;SDS011;42382;53.210;5.772;2023-04-06T09:54:37;17.50;;;12.15;;
56477;SDS011;42382;53.210;5.772;2023-04-06T09:57:06;22.48;;;13.43;;
56477;SDS011;42382;53.210;5.772;2023-04-06T09:59:38;19.13;;;13.10;;
56477;SDS011;42382;53.210;5.772;2023-04-06T10:05:09;19.23;;;13.50;;
56477;SDS011;42382;53.210;5.772;2023-04-06T10:10:08;20.48;;;13.00;;
56477;SDS011;42382;53.210;5.772;2023-04-06T10:12:35;19.75;;;12.75;;
56477;SDS011;42382;53.210;5.772;2023-04-06T10:15:03;20.70;;;13.20;;
56477;SDS011;42382;53.210;5.772;2023-04-06T10:17:30;21.10;;;13.90;;
56477;SDS011;42382;53.210;5.772;2023-04-06T10:20:02;22.77;;;13.18;;
56477;SDS011;42382;53.210;5.772;2023-04-06T10:22:36;20.10;;;13.38;;
56477;SDS011;42382;53.210;5.772;2023-04-06T10:25:08;27.10;;;15.27;;
56477;SDS011;42382;53.210;5.772;2023-04-06T10:27:34;20.10;;;13.02;;
56477;SDS011;42382;53.210;5.772;2023-04-06T10:30:01;20.55;;;13.50;;
56477;SDS011;42382;53.210;5.772;2023-04-06T10:32:34;19.80;;;14.63;;
56477;SDS011;42382;53.210;5.772;2023-04-06T10:37:45;20.77;;;14.23;;
56477;SDS011;42382;53.210;5.772;2023-04-06T10:40:20;21.50;;;14.05;;
56477;SDS011;42382;53.210;5.772;2023-04-06T10:42:49;25.08;;;14.85;;
56477;SDS011;42382;53.210;5.772;2023-04-06T10:47:47;20.42;;;14.07;;
56477;SDS011;42382;53.210;5.772;2023-04-06T10:50:14;22.27;;;13.88;;
56477;SDS011;42382;53.210;5.772;2023-04-06T10:52:41;24.30;;;14.30;;
56477;SDS011;42382;53.210;5.772;2023-04-06T10:55:08;20.38;;;13.23;;
56477;SDS011;42382;53.210;5.772;2023-04-06T10:57:37;21.50;;;14.95;;
56477;SDS011;42382;53.210;5.772;2023-04-06T11:00:06;24.23;;;15.65;;
56477;SDS011;42382;53.210;5.772;2023-04-06T11:02:33;21.58;;;14.95;;
56477;SDS011;42382;53.210;5.772;2023-04-06T11:05:01;24.27;;;15.70;;
56477;SDS011;42382;53.210;5.772;2023-04-06T11:07:26;25.02;;;15.13;;
56477;SDS011;42382;53.210;5.772;2023-04-06T11:09:54;25.05;;;16.77;;
56477;SDS011;42382;53.210;5.772;2023-04-06T11:12:21;28.00;;;16.27;;
56477;SDS011;42382;53.210;5.772;2023-04-06T11:14:54;26.25;;;17.35;;
56477;SDS011;42382;53.210;5.772;2023-04-06T11:17:30;27.67;;;16.48;;
56477;SDS011;42382;53.210;5.772;2023-04-06T11:19:56;27.80;;;16.27;;
56477;SDS011;42382;53.210;5.772;2023-04-06T11:22:23;26.60;;;17.48;;
56477;SDS011;42382;53.210;5.772;2023-04-06T11:24:50;27.80;;;16.80;;
56477;SDS011;42382;53.210;5.772;2023-04-06T11:27:16;29.50;;;16.50;;
56477;SDS011;42382;53.210;5.772;2023-04-06T11:29:43;27.92;;;15.98;;
56477;SDS011;42382;53.210;5.772;2023-04-06T11:32:11;23.85;;;15.38;;
56477;SDS011;42382;53.210;5.772;2023-04-06T11:34:44;21.77;;;15.48;;
56477;SDS011;42382;53.210;5.772;2023-04-06T11:37:12;24.85;;;15.50;;
56477;SDS011;42382;53.210;5.772;2023-04-06T11:39:51;23.02;;;15.50;;
56477;SDS011;42382;53.210;5.772;2023-04-06T11:42:22;23.33;;;14.80;;
56477;SDS011;42382;53.210;5.772;2023-04-06T11:44:55;22.17;;;14.55;;
56477;SDS011;42382;53.210;5.772;2023-04-06T11:47:56;24.40;;;15.50;;
56477;SDS011;42382;53.210;5.772;2023-04-06T11:50:20;20.17;;;14.13;;
56477;SDS011;42382;53.210;5.772;2023-04-06T11:52:58;23.75;;;14.27;;
56477;SDS011;42382;53.210;5.772;2023-04-06T11:55:25;22.60;;;13.65;;
56477;SDS011;42382;53.210;5.772;2023-04-06T11:57:51;22.58;;;13.95;;
56477;SDS011;42382;53.210;5.772;2023-04-06T12:00:17;22.52;;;13.68;;
56477;SDS011;42382;53.210;5.772;2023-04-06T12:02:46;23.27;;;14.38;;
56477;SDS011;42382;53.210;5.772;2023-04-06T12:05:13;25.17;;;15.25;;
56477;SDS011;42382;53.210;5.772;2023-04-06T12:07:39;17.42;;;12.02;;
56477;SDS011;42382;53.210;5.772;2023-04-06T12:10:04;17.95;;;11.93;;
56477;SDS011;42382;53.210;5.772;2023-04-06T12:12:33;22.17;;;13.68;;
56477;SDS011;42382;53.210;5.772;2023-04-06T12:14:59;20.25;;;14.25;;
56477;SDS011;42382;53.210;5.772;2023-04-06T12:17:25;20.95;;;13.77;;
56477;SDS011;42382;53.210;5.772;2023-04-06T12:19:50;21.10;;;13.45;;
56477;SDS011;42382;53.210;5.772;2023-04-06T12:22:17;20.00;;;13.10;;
56477;SDS011;42382;53.210;5.772;2023-04-06T12:24:43;20.55;;;12.38;;
56477;SDS011;42382;53.210;5.772;2023-04-06T12:27:08;18.98;;;12.30;;
56477;SDS011;42382;53.210;5.772;2023-04-06T12:29:36;16.35;;;11.95;;
56477;SDS011;42382;53.210;5.772;2023-04-06T12:32:05;20.80;;;10.73;;
56477;SDS011;42382;53.210;5.772;2023-04-06T12:34:31;16.33;;;10.32;;
56477;SDS011;42382;53.210;5.772;2023-04-06T12:36:56;11.43;;;7.47;;
56477;SDS011;42382;53.210;5.772;2023-04-06T12:39:22;11.15;;;5.90;;
56477;SDS011;42382;53.210;5.772;2023-04-06T12:41:48;13.48;;;8.45;;
56477;SDS011;42382;53.210;5.772;2023-04-06T12:44:14;18.70;;;10.15;;
56477;SDS011;42382;53.210;5.772;2023-04-06T12:46:39;21.42;;;11.90;;
56477;SDS011;42382;53.210;5.772;2023-04-06T12:49:05;15.60;;;10.82;;
56477;SDS011;42382;53.210;5.772;2023-04-06T12:51:32;16.50;;;9.93;;
56477;SDS011;42382;53.210;5.772;2023-04-06T12:53:57;14.82;;;10.00;;
56477;SDS011;42382;53.210;5.772;2023-04-06T12:56:24;15.75;;;9.75;;
56477;SDS011;42382;53.210;5.772;2023-04-06T12:58:50;15.15;;;9.52;;
56477;SDS011;42382;53.210;5.772;2023-04-06T13:01:17;13.50;;;9.00;;
56477;SDS011;42382;53.210;5.772;2023-04-06T13:03:43;10.52;;;7.05;;
56477;SDS011;42382;53.210;5.772;2023-04-06T13:06:09;11.13;;;6.80;;
56477;SDS011;42382;53.210;5.772;2023-04-06T13:08:35;11.48;;;6.68;;
56477;SDS011;42382;53.210;5.772;2023-04-06T13:11:05;8.65;;;6.30;;
56477;SDS011;42382;53.210;5.772;2023-04-06T13:13:33;9.10;;;5.85;;
56477;SDS011;42382;53.210;5.772;2023-04-06T13:23:17;10.57;;;6.55;;
56477;SDS011;42382;53.210;5.772;2023-04-06T13:25:42;11.68;;;7.05;;
56477;SDS011;42382;53.210;5.772;2023-04-06T13:28:08;12.70;;;8.27;;
56477;SDS011;42382;53.210;5.772;2023-04-06T13:30:35;11.73;;;8.02;;
56477;SDS011;42382;53.210;5.772;2023-04-06T13:37:52;16.25;;;10.00;;
56477;SDS011;42382;53.210;5.772;2023-04-06T13:40:18;18.15;;;10.60;;
56477;SDS011;42382;53.210;5.772;2023-04-06T13:42:44;17.40;;;10.70;;
56477;SDS011;42382;53.210;5.772;2023-04-06T13:45:11;15.70;;;10.60;;
56477;SDS011;42382;53.210;5.772;2023-04-06T13:47:39;17.35;;;10.73;;
56477;SDS011;42382;53.210;5.772;2023-04-06T13:50:05;16.50;;;10.52;;
56477;SDS011;42382;53.210;5.772;2023-04-06T13:52:31;17.45;;;11.30;;
56477;SDS011;42382;53.210;5.772;2023-04-06T13:54:57;16.90;;;10.98;;
56477;SDS011;42382;53.210;5.772;2023-04-06T13:57:22;17.15;;;10.75;;
56477;SDS011;42382;53.210;5.772;2023-04-06T13:59:48;21.10;;;10.77;;
56477;SDS011;42382;53.210;5.772;2023-04-06T14:02:15;17.25;;;10.75;;
56477;SDS011;42382;53.210;5.772;2023-04-06T14:04:41;17.75;;;10.90;;
56477;SDS011;42382;53.210;5.772;2023-04-06T14:07:06;17.27;;;11.75;;
56477;SDS011;42382;53.210;5.772;2023-04-06T14:09:32;21.27;;;12.43;;
56477;SDS011;42382;53.210;5.772;2023-04-06T14:11:58;21.33;;;12.27;;
56477;SDS011;42382;53.210;5.772;2023-04-06T14:14:25;16.88;;;12.45;;
56477;SDS011;42382;53.210;5.772;2023-04-06T14:16:51;17.92;;;11.55;;
56477;SDS011;42382;53.210;5.772;2023-04-06T14:19:17;18.23;;;12.25;;
56477;SDS011;42382;53.210;5.772;2023-04-06T14:21:44;19.23;;;12.55;;
56477;SDS011;42382;53.210;5.772;2023-04-06T14:24:10;19.35;;;12.98;;
56477;SDS011;42382;53.210;5.772;2023-04-06T14:26:37;19.95;;;11.85;;
56477;SDS011;42382;53.210;5.772;2023-04-06T14:29:04;18.52;;;12.75;;
56477;SDS011;42382;53.210;5.772;2023-04-06T14:31:31;17.15;;;12.50;;
56477;SDS011;42382;53.210;5.772;2023-04-06T14:33:57;18.33;;;13.27;;
56477;SDS011;42382;53.210;5.772;2023-04-06T14:38:52;22.80;;;13.60;;
56477;SDS011;42382;53.210;5.772;2023-04-06T14:41:18;19.25;;;14.27;;
56477;SDS011;42382;53.210;5.772;2023-04-06T14:43:45;20.45;;;14.50;;
56477;SDS011;42382;53.210;5.772;2023-04-06T14:46:11;20.63;;;14.45;;
56477;SDS011;42382;53.210;5.772;2023-04-06T14:48:37;21.55;;;14.75;;
56477;SDS011;42382;53.210;5.772;2023-04-06T14:51:05;21.77;;;15.00;;
56477;SDS011;42382;53.210;5.772;2023-04-06T14:53:31;20.48;;;15.00;;
56477;SDS011;42382;53.210;5.772;2023-04-06T14:55:57;20.60;;;14.43;;
56477;SDS011;42382;53.210;5.772;2023-04-06T14:58:23;22.52;;;15.57;;
56477;SDS011;42382;53.210;5.772;2023-04-06T15:00:55;21.55;;;15.55;;